tititudorancea.com
Station Historical Data
 
Daily Summary for December 07, 2016 Units:  Metric    English   Both
« Previous Day
Next Day »
Daily Weekly Monthly Yearly Custom
  Current: High: Low: Average:
Temperature: 23.1 °C 30.4 °C 8.1 °C 19.9 °C
Dew Point: 11.8 °C 13.2 °C 6.8 °C 10.3 °C
Humidity: 49 % 93 % 29 % 60 %
Wind Speed: 0 km/h 1.1 km/h 0 km/h 0 km/h
Wind Gust: 0 km/h 14.8 km/h - -
Wind:Calm - - NW
Pressure: 1012.8 hPa 1022.2 hPa 1012.8 hPa -
Precipitation: 0 mm      
Historical Graphs
 
 
Ararat weather Find more about Weather in Ararat, AU


 



 


Tabular Data for December 07, 2016
Time Temperature Dew Point Pressure Wind Wind Speed Wind Gust Humidity Rainfall Rate (Hourly)
00:03 11.3 °C 7.9 °C 1022.2 hPa Calm     80 % 0 mm
00:08 11.2 °C 7.8 °C 1022.2 hPa Calm     80 % 0 mm
00:13 11.2 °C 8.1 °C 1022.2 hPa Calm     81 % 0 mm
00:18 11.2 °C 8.1 °C 1022.2 hPa Calm     81 % 0 mm
00:23 11.1 °C 7.9 °C 1022.2 hPa Calm     81 % 0 mm
00:28 11 °C 8 °C 1022.2 hPa Calm     82 % 0 mm
00:33 11 °C 8 °C 1022.2 hPa Calm     82 % 0 mm
00:38 11 °C 8 °C 1022.2 hPa Calm     82 % 0 mm
00:43 10.9 °C 8.1 °C 1022.2 hPa Calm     83 % 0 mm
00:48 10.9 °C 8.1 °C 1021.9 hPa Calm     83 % 0 mm
00:53 10.8 °C 8 °C 1021.9 hPa Calm     83 % 0 mm
00:58 10.7 °C 8.1 °C 1021.9 hPa Calm     84 % 0 mm
01:03 10.7 °C 8.1 °C 1022.2 hPa Calm     84 % 0 mm
01:08 10.7 °C 8.3 °C 1022.2 hPa Calm     85 % 0 mm
01:13 10.6 °C 8.2 °C 1021.9 hPa Calm     85 % 0 mm
01:18 10.6 °C 8.2 °C 1022.2 hPa Calm     85 % 0 mm
01:23 10.5 °C 8.1 °C 1022.2 hPa Calm     85 % 0 mm
01:29 10.5 °C 8.1 °C 1022.2 hPa Calm     85 % 0 mm
01:34 10.5 °C 8.2 °C 1022.2 hPa Calm     86 % 0 mm
01:39 10.4 °C 8.2 °C 1021.9 hPa Calm     86 % 0 mm
01:44 10.4 °C 8.3 °C 1021.9 hPa Calm     87 % 0 mm
01:49 10.3 °C 8.2 °C 1021.6 hPa Calm     87 % 0 mm
01:54 10.3 °C 8.2 °C 1021.6 hPa Calm     87 % 0 mm
01:59 10.2 °C 8.3 °C 1021.6 hPa Calm     88 % 0 mm
02:04 10.2 °C 8.3 °C 1021.6 hPa Calm     88 % 0 mm
02:09 10.2 °C 8.3 °C 1021.6 hPa Calm   1.1 km/h 88 % 0 mm
02:14 10.2 °C 8.3 °C 1021.6 hPa Calm   1.1 km/h 88 % 0 mm
02:19 10.1 °C 8.4 °C 1021.2 hPa Calm     89 % 0 mm
02:24 10.1 °C 8.4 °C 1021.6 hPa Calm     89 % 0 mm
02:29 10.1 °C 8.6 °C 1021.6 hPa Calm     90 % 0 mm
02:34 10.1 °C 8.6 °C 1021.2 hPa Calm     90 % 0 mm
02:39 10 °C 8.4 °C 1021.2 hPa Calm     90 % 0 mm
02:44 10 °C 8.4 °C 1021.2 hPa Calm     90 % 0 mm
02:49 10 °C 8.4 °C 1021.2 hPa Calm     90 % 0 mm
02:54 10 °C 8.4 °C 1021.2 hPa Calm   1.1 km/h 90 % 0 mm
02:59 9.9 °C 8.3 °C 1021.2 hPa Calm   1.1 km/h 90 % 0 mm
03:04 9.9 °C 8.3 °C 1021.2 hPa Calm     90 % 0 mm
03:09 9.9 °C 8.3 °C 1021.2 hPa Calm     90 % 0 mm
03:14 9.9 °C 8.3 °C 1020.9 hPa Calm     90 % 0 mm
03:19 9.8 °C 8.2 °C 1020.9 hPa Calm     90 % 0 mm
03:24 9.8 °C 8.2 °C 1020.9 hPa Calm     90 % 0 mm
03:29 9.7 °C 8.2 °C 1020.9 hPa Calm     90 % 0 mm
03:34 9.7 °C 8.3 °C 1020.9 hPa Calm     91 % 0 mm
03:39 9.6 °C 8.2 °C 1020.9 hPa Calm     91 % 0 mm
03:44 9.5 °C 8.1 °C 1020.9 hPa Calm     91 % 0 mm
03:49 9.5 °C 8.1 °C 1020.9 hPa Calm     91 % 0 mm
03:54 9.4 °C 8 °C 1020.9 hPa Calm     91 % 0 mm
03:59 9.4 °C 8.2 °C 1020.9 hPa Calm     92 % 0 mm
04:04 9.4 °C 8.2 °C 1021.2 hPa Calm     92 % 0 mm
04:09 9.4 °C 8.2 °C 1020.9 hPa Calm     92 % 0 mm
04:14 9.4 °C 8.2 °C 1021.2 hPa Calm     92 % 0 mm
04:19 9.4 °C 8.2 °C 1021.2 hPa Calm     92 % 0 mm
04:24 9.4 °C 8.2 °C 1021.2 hPa Calm     92 % 0 mm
04:29 9.4 °C 8.2 °C 1021.2 hPa Calm     92 % 0 mm
04:34 9.4 °C 8.2 °C 1021.2 hPa Calm   1.1 km/h 92 % 0 mm
04:39 9.3 °C 8.1 °C 1021.2 hPa Calm   1.1 km/h 92 % 0 mm
04:44 9.3 °C 8.1 °C 1020.9 hPa Calm     92 % 0 mm
04:50 9.2 °C 8 °C 1021.2 hPa Calm     92 % 0 mm
04:55 9.2 °C 8 °C 1021.6 hPa Calm     92 % 0 mm
05:00 9.2 °C 8 °C 1021.2 hPa Calm     92 % 0 mm
05:05 9.2 °C 8 °C 1021.2 hPa Calm     92 % 0 mm
05:10 9.2 °C 8 °C 1021.2 hPa Calm     92 % 0 mm
05:15 9.2 °C 8 °C 1021.2 hPa Calm     92 % 0 mm
05:20 9.1 °C 7.9 °C 1021.2 hPa Calm     92 % 0 mm
05:25 9.1 °C 7.9 °C 1021.6 hPa Calm     92 % 0 mm
05:30 9 °C 7.8 °C 1021.6 hPa Calm     92 % 0 mm
05:35 9 °C 7.8 °C 1021.6 hPa Calm     92 % 0 mm
05:40 8.8 °C 7.6 °C 1021.2 hPa Calm     92 % 0 mm
05:45 8.7 °C 7.5 °C 1021.6 hPa Calm     92 % 0 mm
05:50 8.6 °C 7.2 °C 1021.6 hPa Calm     91 % 0 mm
05:55 8.4 °C 7.1 °C 1021.6 hPa Calm     91 % 0 mm
06:00 8.4 °C 7.1 °C 1021.6 hPa Calm     91 % 0 mm
06:05 8.3 °C 6.9 °C 1021.6 hPa Calm     91 % 0 mm
06:10 8.2 °C 6.8 °C 1021.6 hPa Calm     91 % 0 mm
06:15 8.2 °C 6.8 °C 1021.6 hPa Calm     91 % 0 mm
06:20 8.1 °C 6.8 °C 1021.6 hPa Calm     91 % 0 mm
06:25 8.2 °C 7 °C 1021.2 hPa Calm     92 % 0 mm
06:30 8.2 °C 6.8 °C 1021.2 hPa Calm   1.1 km/h 91 % 0 mm
06:35 8.2 °C 6.8 °C 1021.2 hPa Calm   1.1 km/h 91 % 0 mm
06:40 8.3 °C 6.9 °C 1021.2 hPa Calm     91 % 0 mm
06:45 8.3 °C 6.9 °C 1021.2 hPa Calm     91 % 0 mm
06:50 8.4 °C 7.2 °C 1021.6 hPa Calm     92 % 0 mm
06:55 8.6 °C 7.4 °C 1021.2 hPa Calm     92 % 0 mm
07:00 8.8 °C 7.6 °C 1021.2 hPa Calm     92 % 0 mm
07:05 9 °C 7.8 °C 1021.2 hPa Calm     92 % 0 mm
07:10 9.3 °C 8.1 °C 1021.6 hPa Calm     92 % 0 mm
07:15 9.5 °C 8.4 °C 1021.6 hPa Calm     93 % 0 mm
07:20 9.8 °C 8.6 °C 1021.2 hPa Calm     92 % 0 mm
07:25 10 °C 8.8 °C 1021.2 hPa Calm     92 % 0 mm
07:30 10.3 °C 9.1 °C 1021.6 hPa Calm     92 % 0 mm
07:36 10.5 °C 9.2 °C 1021.6 hPa Calm     92 % 0 mm
07:41 10.8 °C 9.4 °C 1021.6 hPa Calm     91 % 0 mm
07:46 11.1 °C 9.7 °C 1021.6 hPa Calm     91 % 0 mm
07:51 11.3 °C 9.7 °C 1021.6 hPa Calm     90 % 0 mm
07:56 11.4 °C 9.9 °C 1021.6 hPa Calm     90 % 0 mm
08:01 11.8 °C 9.8 °C 1021.6 hPa Calm     88 % 0 mm
08:06 12.2 °C 10.1 °C 1021.6 hPa Calm     87 % 0 mm
08:11 12.6 °C 10.3 °C 1021.6 hPa Calm     86 % 0 mm
08:16 13.1 °C 10.8 °C 1021.6 hPa Calm     86 % 0 mm
08:21 13.7 °C 10.9 °C 1021.6 hPa Calm     83 % 0 mm
08:26 14.1 °C 10.9 °C 1021.6 hPa Calm     81 % 0 mm
08:31 14.5 °C 10.9 °C 1021.9 hPa Calm     79 % 0 mm
08:36 14.8 °C 11 °C 1021.6 hPa Calm     78 % 0 mm
08:41 15.3 °C 11.3 °C 1021.9 hPa Calm     77 % 0 mm
08:46 15.5 °C 11.1 °C 1021.9 hPa Calm     75 % 0 mm
08:51 15.8 °C 10.9 °C 1021.6 hPa Calm     73 % 0 mm
08:56 16.2 °C 11.1 °C 1021.9 hPa Calm     72 % 0 mm
09:01 16.4 °C 11 °C 1021.6 hPa Calm     70 % 0 mm
09:06 16.9 °C 11.4 °C 1021.9 hPa Calm     70 % 0 mm
09:11 17.2 °C 11 °C 1021.9 hPa Calm     67 % 0 mm
09:16 17.6 °C 11.1 °C 1021.9 hPa Calm   1.1 km/h 66 % 0 mm
09:21 18.1 °C 11.4 °C 1021.9 hPa Calm   1.1 km/h 65 % 0 mm
09:26 18.8 °C 12.1 °C 1021.9 hPa Calm     65 % 0 mm
09:31 19.2 °C 11.8 °C 1021.9 hPa Calm     62 % 0 mm
09:36 19.7 °C 11.2 °C 1021.9 hPa Calm     58 % 0 mm
09:41 19.7 °C 10.7 °C 1021.9 hPa Calm     56 % 0 mm
09:46 20.1 °C 11.1 °C 1021.6 hPa Calm     56 % 0 mm
09:51 20.1 °C 11.1 °C 1021.6 hPa Calm     56 % 0 mm
09:56 20.6 °C 11.8 °C 1021.6 hPa Calm     57 % 0 mm
10:01 20.9 °C 11.1 °C 1021.6 hPa Calm     53 % 0 mm
10:06 20.8 °C 10.6 °C 1021.6 hPa Calm     52 % 0 mm
10:11 21.3 °C 11.3 °C 1021.6 hPa Calm     53 % 0 mm
10:16 21.8 °C 12.1 °C 1021.6 hPa Calm     54 % 0 mm
10:21 22.2 °C 11.9 °C 1021.6 hPa Calm     52 % 0 mm
10:26 22.6 °C 11.9 °C 1021.2 hPa Calm     51 % 0 mm
10:31 22.9 °C 12.3 °C 1021.6 hPa Calm   1.1 km/h 51 % 0 mm
10:36 23.3 °C 12.6 °C 1021.6 hPa Calm   1.1 km/h 51 % 0 mm
10:41 23.8 °C 13.1 °C 1021.6 hPa Calm   1.1 km/h 51 % 0 mm
10:46 24 °C 12.7 °C 1021.6 hPa Calm     49 % 0 mm
10:51 24.4 °C 13 °C 1021.6 hPa Calm   5 km/h 49 % 0 mm
10:56 24.6 °C 12.9 °C 1021.2 hPa Calm   5 km/h 48 % 0 mm
11:01 24.9 °C 13.2 °C 1021.6 hPa Calm   1.1 km/h 48 % 0 mm
11:06 25.3 °C 13.2 °C 1021.2 hPa Calm   1.1 km/h 47 % 0 mm
11:11 25 °C 12.3 °C 1021.2 hPa Calm     45 % 0 mm
11:16 25.1 °C 12.7 °C 1021.2 hPa Calm     46 % 0 mm
11:21 25.4 °C 12.6 °C 1021.2 hPa Calm     45 % 0 mm
11:26 25.6 °C 12.8 °C 1021.2 hPa Calm   5 km/h 45 % 0 mm
11:31 25.8 °C 12.6 °C 1021.2 hPa Calm   5 km/h 44 % 0 mm
11:36 25.9 °C 12 °C 1021.2 hPa Calm   5 km/h 42 % 0 mm
11:41 26.2 °C 12.6 °C 1021.2 hPa Calm   1.1 km/h 43 % 0 mm
11:46 26.4 °C 12.6 °C 1020.9 hPa Calm     42 % 0 mm
11:51 26.4 °C 12.6 °C 1020.9 hPa Calm     42 % 0 mm
11:56 26.8 °C 13.2 °C 1020.9 hPa Calm     43 % 0 mm
12:01 26.9 °C 12.9 °C 1020.9 hPa Calm     42 % 0 mm
12:06 27.1 °C 13.1 °C 1020.5 hPa Calm     42 % 0 mm
12:12 27.2 °C 12.5 °C 1020.9 hPa Calm     40 % 0 mm
12:17 27.3 °C 12.6 °C 1020.2 hPa Calm     40 % 0 mm
12:22 27.3 °C 12.6 °C 1020.5 hPa Calm     40 % 0 mm
12:27 27.6 °C 11.9 °C 1020.5 hPa Calm     38 % 0 mm
12:32 27.6 °C 12.1 °C 1020.5 hPa Calm     38 % 0 mm
12:37 27.7 °C 12.6 °C 1020.2 hPa Calm   1.1 km/h 39 % 0 mm
12:42 27.8 °C 11.8 °C 1020.2 hPa Calm   1.1 km/h 37 % 0 mm
12:47 27.8 °C 12.6 °C 1020.2 hPa Calm     39 % 0 mm
12:52 28.1 °C 12 °C 1019.9 hPa Calm     37 % 0 mm
12:57 28.1 °C 12.5 °C 1019.9 hPa Calm     38 % 0 mm
13:07 28.2 °C 11.8 °C 1019.9 hPa Calm   9.7 km/h 36 % 0 mm
13:12 28.4 °C 11.9 °C 1019.9 hPa Calm   7.2 km/h 36 % 0 mm
13:17 28.2 °C 11.8 °C 1019.9 hPa Calm   1.1 km/h 36 % 0 mm
13:22 28.3 °C 11.4 °C 1019.9 hPa Calm   5 km/h 35 % 0 mm
13:27 28.6 °C 11.7 °C 1019.5 hPa Calm   5 km/h 35 % 0 mm
13:32 28.8 °C 12.3 °C 1019.5 hPa Calm     36 % 0 mm
13:37 29.2 °C 12.2 °C 1019.5 hPa Calm     35 % 0 mm
13:42 29.2 °C 11.8 °C 1019.5 hPa Calm     34 % 0 mm
13:47 29.2 °C 11.8 °C 1019.2 hPa Calm     34 % 0 mm
13:52 29.3 °C 11.8 °C 1019.2 hPa Calm     34 % 0 mm
13:57 29.3 °C 11.4 °C 1019.2 hPa Calm     33 % 0 mm
14:02 29.3 °C 11.4 °C 1018.8 hPa Calm     33 % 0 mm
14:07 29.4 °C 11.5 °C 1018.8 hPa Calm     33 % 0 mm
14:12 29.5 °C 11.1 °C 1018.8 hPa Calm     32 % 0 mm
14:17 29.4 °C 11.9 °C 1018.8 hPa Calm     34 % 0 mm
14:22 29.3 °C 11.4 °C 1018.8 hPa Calm     33 % 0 mm
14:27 29.4 °C 12.4 °C 1018.8 hPa Calm     35 % 0 mm
14:32 29.3 °C 11.4 °C 1018.5 hPa Calm     33 % 0 mm
14:37 29.2 °C 11.8 °C 1018.5 hPa Calm     34 % 0 mm
14:42 29.2 °C 10.4 °C 1018.2 hPa Calm     31 % 0 mm
14:47 29.3 °C 11.4 °C 1018.5 hPa Calm     33 % 0 mm
14:52 29.6 °C 11.7 °C 1018.2 hPa Calm     33 % 0 mm
14:57 29.8 °C 11.3 °C 1018.2 hPa Calm     32 % 0 mm
15:02 29.8 °C 11.3 °C 1018.2 hPa Calm     32 % 0 mm
15:08 29.8 °C 11.8 °C 1018.2 hPa Calm     33 % 0 mm
15:13 29.9 °C 10.9 °C 1018.2 hPa Calm     31 % 0 mm
15:18 29.9 °C 11.4 °C 1018.2 hPa Calm     32 % 0 mm
15:23 29.8 °C 9.9 °C 1017.8 hPa Calm   1.1 km/h 29 % 0 mm
15:28 29.7 °C 10.3 °C 1017.8 hPa NW 1.1 km/h 13.4 km/h 30 % 0 mm
15:33 29.5 °C 10.6 °C 1017.5 hPa Calm   14.8 km/h 31 % 0 mm
15:38 29.8 °C 11.3 °C 1017.5 hPa Calm   14.8 km/h 32 % 0 mm
15:43 30 °C 11.1 °C 1017.5 hPa Calm     31 % 0 mm
15:48 29.9 °C 10.9 °C 1017.5 hPa Calm     31 % 0 mm
15:53 30 °C 11.1 °C 1017.5 hPa Calm     31 % 0 mm
15:58 30.1 °C 11.1 °C 1017.2 hPa Calm     31 % 0 mm
16:03 30.2 °C 11.2 °C 1017.2 hPa Calm     31 % 0 mm
16:08 30.1 °C 11.1 °C 1017.2 hPa Calm     31 % 0 mm
16:13 30.2 °C 11.2 °C 1016.8 hPa Calm     31 % 0 mm
16:18 30.2 °C 11.2 °C 1016.8 hPa Calm     31 % 0 mm
16:23 30.1 °C 11.1 °C 1016.8 hPa Calm     31 % 0 mm
16:28 30.1 °C 10.6 °C 1016.8 hPa Calm     30 % 0 mm
16:36 30.1 °C 11.6 °C 1016.5 hPa Calm     32 % 0 mm
16:42 30.1 °C 11.6 °C 1016.5 hPa Calm   1.1 km/h 32 % 0 mm
16:47 30.2 °C 11.7 °C 1016.5 hPa Calm   1.1 km/h 32 % 0 mm
16:52 30.2 °C 11.7 °C 1016.1 hPa Calm     32 % 0 mm
16:57 30.2 °C 11.7 °C 1016.1 hPa Calm   1.1 km/h 32 % 0 mm
17:02 30.3 °C 11.8 °C 1016.1 hPa Calm   1.1 km/h 32 % 0 mm
17:07 30.1 °C 11.6 °C 1015.5 hPa Calm     32 % 0 mm
17:12 30 °C 11.5 °C 1015.8 hPa Calm     32 % 0 mm
17:17 30.1 °C 12.1 °C 1015.5 hPa Calm     33 % 0 mm
17:22 30.4 °C 12.3 °C 1015.8 hPa Calm   1.1 km/h 33 % 0 mm
17:27 30.4 °C 11.9 °C 1015.5 hPa Calm   1.1 km/h 32 % 0 mm
17:32 30.4 °C 11.9 °C 1015.5 hPa Calm   1.1 km/h 32 % 0 mm
17:37 30.4 °C 11.9 °C 1015.5 hPa Calm     32 % 0 mm
17:42 30.2 °C 11.7 °C 1015.1 hPa Calm     32 % 0 mm
17:47 30.1 °C 12.1 °C 1015.1 hPa Calm     33 % 0 mm
17:52 29.9 °C 11.9 °C 1015.1 hPa Calm     33 % 0 mm
17:57 29.7 °C 11.7 °C 1015.1 hPa Calm     33 % 0 mm
18:07 29.6 °C 11.7 °C 1014.8 hPa Calm     33 % 0 mm
18:12 29.5 °C 11.6 °C 1014.8 hPa Calm     33 % 0 mm
18:17 29.6 °C 11.7 °C 1014.8 hPa Calm     33 % 0 mm
18:22 29.7 °C 11.7 °C 1014.8 hPa Calm     33 % 0 mm
18:27 29.5 °C 11.6 °C 1014.8 hPa Calm     33 % 0 mm
18:32 29.2 °C 11.8 °C 1014.4 hPa Calm     34 % 0 mm
18:37 29.1 °C 11.7 °C 1014.4 hPa Calm   8.7 km/h 34 % 0 mm
18:42 28.8 °C 11.4 °C 1014.4 hPa Calm   12.2 km/h 34 % 0 mm
18:47 28.8 °C 11.4 °C 1014.4 hPa Calm   12.2 km/h 34 % 0 mm
18:52 28.6 °C 11.7 °C 1014.1 hPa Calm   9.7 km/h 35 % 0 mm
18:57 28.6 °C 11.2 °C 1014.1 hPa Calm     34 % 0 mm
19:02 29.5 °C 12.4 °C 1014.1 hPa Calm     35 % 0 mm
19:07 29.9 °C 12.8 °C 1013.8 hPa Calm     35 % 0 mm
19:13 30.3 °C 13.2 °C 1013.8 hPa Calm     35 % 0 mm
19:18 29.9 °C 12.3 °C 1013.8 hPa Calm     34 % 0 mm
19:23 29.5 °C 12.4 °C 1013.8 hPa Calm   1.1 km/h 35 % 0 mm
19:28 29.2 °C 12.2 °C 1013.8 hPa Calm   1.1 km/h 35 % 0 mm
19:33 28.9 °C 12.4 °C 1014.1 hPa Calm     36 % 0 mm
19:38 28.6 °C 12.5 °C 1013.8 hPa Calm     37 % 0 mm
19:44 28.3 °C 12.3 °C 1013.4 hPa Calm     37 % 0 mm
19:49 28.1 °C 12.4 °C 1013.8 hPa Calm     38 % 0 mm
19:54 28.1 °C 12.4 °C 1013.4 hPa Calm   8.7 km/h 38 % 0 mm
19:59 27.8 °C 12.6 °C 1013.4 hPa Calm   8.7 km/h 39 % 0 mm
20:04 27.4 °C 12.3 °C 1013.4 hPa Calm     39 % 0 mm
20:09 26.9 °C 11.8 °C 1013.1 hPa Calm   1.1 km/h 39 % 0 mm
20:14 26.6 °C 11.5 °C 1013.4 hPa Calm   1.1 km/h 39 % 0 mm
20:24 25.9 °C 11.3 °C 1013.1 hPa Calm     40 % 0 mm
20:29 25.5 °C 11.3 °C 1013.1 hPa Calm     41 % 0 mm
20:34 25.1 °C 11.3 °C 1013.1 hPa Calm     42 % 0 mm
20:39 24.8 °C 11.4 °C 1012.8 hPa Calm     43 % 0 mm
20:44 24.6 °C 11.2 °C 1013.1 hPa Calm     43 % 0 mm
20:49 24.3 °C 11.3 °C 1012.8 hPa Calm     44 % 0 mm
20:54 24.1 °C 11.1 °C 1013.1 hPa Calm     44 % 0 mm
20:59 23.8 °C 11.2 °C 1012.8 hPa Calm     45 % 0 mm
21:04 23.7 °C 11.1 °C 1013.1 hPa Calm     45 % 0 mm
21:09 23.5 °C 10.9 °C 1013.1 hPa Calm   1.1 km/h 45 % 0 mm
21:14 23.4 °C 11.2 °C 1013.1 hPa Calm   1.1 km/h 46 % 0 mm
21:19 23.3 °C 11.4 °C 1013.1 hPa Calm     47 % 0 mm
21:24 23.2 °C 11.9 °C 1013.1 hPa Calm     49 % 0 mm
21:29 23.1 °C 11.8 °C 1012.8 hPa Calm     49 % 0 mm
Ararat Weather
Compliments of Weather Underground - 1.75 mb
Click here to send mail.


ABOUT

Live weather data from Ararat, Victoria, Australia, 3377
Data uploaded from Cumulus every 5 minutes to Weather Underground.
This site then downloads the raw data for formatting and display.
Metric and imperial data can be displayed. Graphs and historical data available.
Includes Sun and Moon times and rain image live from BOM.

Check out Ararat Weather on Facebook, Twitter and Google +

Help support ongoing costs by checking out the ads





Follow @AraratWeather